EKOD/ODE METAR and TAF weather

Enter ICAO airport designator
Station Type Date Time Source
EKOD METAR 2019/04/22 14:50 UTC NOAA

EKOD 221450Z 11017KT 080V140 CAVOK 14/01 Q1019


Station Type Date Time Source
EKOD Decoded METAR 2019/04/22 14:50 UTC NOAA

Odense / Beldringe, Denmark (EKOD) 55-29N 010-20E 17M
Apr 22, 2019 - 10:50 AM EDT / 2019.04.22 1450 UTC
Wind: from the ESE (110 degrees) at 20 MPH (17 KT) (direction variable):0
Visibility: greater than 7 mile(s):0
Temperature: 57 F (14 C)
Dew Point: 33 F (1 C)
Relative Humidity: 41%
Pressure (altimeter): 30.09 in. Hg (1019 hPa)
ob: EKOD 221450Z 11017KT 080V140 CAVOK 14/01 Q1019
cycle: 15

Station Type Date Time Source
EKOD TAF 2015/04/20 17:00 UTC NOAA

TAF
AMD EKOD 201701Z 2017/2018 CNL

Example: see airport list